createdAt,value
2022-11-01T00:02:05.735Z,16.40
2022-11-01T00:04:32.818Z,16.40
2022-11-01T00:06:59.492Z,16.50
2022-11-01T00:09:26.132Z,16.50
2022-11-01T00:11:53.252Z,16.50
2022-11-01T00:14:20.675Z,16.40
2022-11-01T00:16:47.449Z,16.40
2022-11-01T00:19:14.355Z,16.30
2022-11-01T00:21:41.087Z,16.40
2022-11-01T00:24:08.066Z,16.40
2022-11-01T00:26:35.102Z,16.40
2022-11-01T00:29:01.822Z,16.40
2022-11-01T00:31:28.715Z,16.40
2022-11-01T00:33:55.611Z,16.40
2022-11-01T00:36:22.263Z,16.50
2022-11-01T00:38:52.672Z,16.40
2022-11-01T00:41:20.864Z,16.40
2022-11-01T00:43:47.969Z,16.40
2022-11-01T00:46:15.280Z,16.40
2022-11-01T00:48:42.029Z,16.40
2022-11-01T00:51:08.759Z,16.40
2022-11-01T00:53:35.537Z,16.40
2022-11-01T00:56:06.886Z,16.50
2022-11-01T00:58:33.642Z,16.50
2022-11-01T01:01:00.508Z,16.50
2022-11-01T01:03:27.465Z,16.40
2022-11-01T01:05:54.643Z,16.40
2022-11-01T01:08:21.548Z,16.40
2022-11-01T01:10:48.734Z,16.40
2022-11-01T01:13:15.505Z,16.30
2022-11-01T01:15:42.640Z,16.30
2022-11-01T01:18:09.516Z,16.40
2022-11-01T01:20:36.595Z,16.30
2022-11-01T01:23:03.769Z,16.30
2022-11-01T01:25:30.526Z,16.30
2022-11-01T01:27:57.265Z,16.30
2022-11-01T01:30:24.036Z,16.30
2022-11-01T01:32:50.913Z,16.30
2022-11-01T01:35:17.830Z,16.30
2022-11-01T01:37:44.478Z,16.30
2022-11-01T01:40:11.552Z,16.30
2022-11-01T01:42:40.467Z,16.30
2022-11-01T01:45:15.042Z,16.30
2022-11-01T01:47:44.228Z,16.20
2022-11-01T01:50:28.055Z,16.30
2022-11-01T01:53:25.915Z,16.30
2022-11-01T01:56:07.659Z,16.30
2022-11-01T01:58:43.909Z,16.30
2022-11-01T02:01:10.856Z,16.30
2022-11-01T02:03:39.669Z,16.30
2022-11-01T02:06:11.196Z,16.30
2022-11-01T02:08:43.870Z,16.30
2022-11-01T02:11:11.770Z,16.30
2022-11-01T02:13:39.150Z,16.20
2022-11-01T02:16:30.028Z,16.20
2022-11-01T02:19:08.777Z,16.30
2022-11-01T02:21:51.746Z,16.30
2022-11-01T02:24:21.151Z,16.30
2022-11-01T02:27:25.512Z,16.20
2022-11-01T02:30:11.010Z,16.20
2022-11-01T02:32:39.347Z,16.20
2022-11-01T02:35:08.946Z,16.20
2022-11-01T02:37:52.284Z,16.20
2022-11-01T02:40:35.454Z,16.20
2022-11-01T02:43:07.943Z,16.20
2022-11-01T02:45:42.041Z,16.20
2022-11-01T02:48:09.823Z,16.30
2022-11-01T02:50:38.645Z,16.30
2022-11-01T02:53:05.712Z,16.20
2022-11-01T02:55:35.495Z,16.20
2022-11-01T02:58:06.419Z,16.30
2022-11-01T03:00:36.245Z,16.20
2022-11-01T03:03:07.875Z,16.20
2022-11-01T03:05:44.991Z,16.20
2022-11-01T03:08:16.576Z,16.20
2022-11-01T03:10:57.916Z,16.20
2022-11-01T03:13:41.020Z,16.20
2022-11-01T03:16:28.664Z,16.20
2022-11-01T03:19:32.294Z,16.20
2022-11-01T03:21:59.200Z,16.20
2022-11-01T03:24:41.878Z,16.20
2022-11-01T03:27:25.931Z,16.20
2022-11-01T03:29:58.627Z,16.20
2022-11-01T03:32:30.137Z,16.30
2022-11-01T03:34:59.424Z,16.30
2022-11-01T03:37:28.071Z,16.30
2022-11-01T03:39:56.307Z,16.30
2022-11-01T03:42:24.331Z,16.40
2022-11-01T03:44:58.570Z,16.40
2022-11-01T03:47:25.747Z,16.40
2022-11-01T03:50:16.117Z,16.40
2022-11-01T03:52:43.035Z,16.40
2022-11-01T03:55:19.120Z,16.40
2022-11-01T03:57:56.072Z,16.40
2022-11-01T04:00:31.797Z,16.40
2022-11-01T04:02:59.502Z,16.40
2022-11-01T04:05:28.890Z,16.40
2022-11-01T04:07:56.209Z,16.30
2022-11-01T04:10:24.439Z,16.40
2022-11-01T04:12:52.000Z,16.30
2022-11-01T04:15:39.223Z,16.30
2022-11-01T04:18:35.065Z,16.30
2022-11-01T04:21:06.198Z,16.30
2022-11-01T04:23:33.861Z,16.30
2022-11-01T04:26:00.993Z,16.30
2022-11-01T04:28:27.991Z,16.30
2022-11-01T04:30:54.950Z,16.30
2022-11-01T04:33:21.677Z,16.30
2022-11-01T04:35:48.393Z,16.30
2022-11-01T04:38:15.280Z,16.30
2022-11-01T04:40:43.240Z,16.30
2022-11-01T04:43:10.803Z,16.30
2022-11-01T04:45:37.655Z,16.30
2022-11-01T04:48:07.503Z,16.30
2022-11-01T04:50:35.653Z,16.30
2022-11-01T04:53:02.833Z,16.30
2022-11-01T04:55:30.061Z,16.30
2022-11-01T04:57:57.260Z,16.30
2022-11-01T05:00:25.187Z,16.30
2022-11-01T05:02:52.655Z,16.30
2022-11-01T05:05:19.454Z,16.40
2022-11-01T05:07:46.165Z,16.40
2022-11-01T05:10:13.098Z,16.40
2022-11-01T05:12:39.928Z,16.40
2022-11-01T05:15:07.329Z,16.40
2022-11-01T05:17:34.074Z,16.40
2022-11-01T05:20:00.823Z,16.40
2022-11-01T05:22:27.517Z,16.40
2022-11-01T05:24:54.156Z,16.40
2022-11-01T05:27:20.938Z,16.50
2022-11-01T05:29:47.583Z,16.40
2022-11-01T05:32:14.259Z,16.40
2022-11-01T05:34:40.938Z,16.40
2022-11-01T05:37:07.595Z,16.40
2022-11-01T05:39:34.213Z,16.60
2022-11-01T05:42:02.919Z,16.40
2022-11-01T05:44:29.880Z,16.40
2022-11-01T05:46:56.716Z,16.40
2022-11-01T05:49:24.584Z,16.40
2022-11-01T05:51:51.430Z,16.30
2022-11-01T05:54:18.201Z,16.40
2022-11-01T05:56:44.884Z,16.40
2022-11-01T05:59:11.634Z,16.40
2022-11-01T06:01:38.407Z,16.50
2022-11-01T06:04:05.497Z,16.50
2022-11-01T06:06:32.686Z,16.50
2022-11-01T06:09:00.191Z,16.50
2022-11-01T06:11:27.554Z,16.60
2022-11-01T06:13:55.887Z,16.60
2022-11-01T06:16:23.378Z,16.60
2022-11-01T06:18:50.068Z,16.60
2022-11-01T06:21:16.879Z,16.60
2022-11-01T06:23:48.021Z,16.70
2022-11-01T06:26:14.758Z,16.70
2022-11-01T06:28:41.458Z,16.70
2022-11-01T06:31:08.408Z,16.70
2022-11-01T06:33:35.196Z,16.70
2022-11-01T06:36:02.946Z,16.70
2022-11-01T06:38:30.005Z,16.70
2022-11-01T06:40:58.207Z,16.70
2022-11-01T06:43:25.002Z,16.70
2022-11-01T06:45:51.656Z,16.70
2022-11-01T06:48:18.393Z,16.70
2022-11-01T06:50:45.036Z,16.80
2022-11-01T06:53:11.681Z,16.70
2022-11-01T06:55:38.480Z,16.80
2022-11-01T06:58:05.472Z,16.80
2022-11-01T07:00:32.568Z,16.70
2022-11-01T07:03:04.699Z,16.80
2022-11-01T07:05:37.074Z,16.80
2022-11-01T07:08:06.471Z,16.80
2022-11-01T07:10:33.660Z,16.80
2022-11-01T07:13:05.579Z,16.80
2022-11-01T07:15:32.631Z,16.80
2022-11-01T07:18:01.552Z,16.80
2022-11-01T07:20:30.422Z,16.90
2022-11-01T07:23:02.804Z,16.80
2022-11-01T07:25:30.523Z,16.80
2022-11-01T07:27:57.808Z,16.80
2022-11-01T07:30:24.890Z,16.90
2022-11-01T07:33:02.930Z,16.80
2022-11-01T07:35:30.528Z,16.90
2022-11-01T07:38:03.791Z,16.90
2022-11-01T07:40:33.586Z,16.90
2022-11-01T07:43:01.047Z,17.00
2022-11-01T07:45:29.511Z,17.00
2022-11-01T07:48:05.699Z,17.10
2022-11-01T07:50:33.772Z,17.10
2022-11-01T07:53:01.334Z,17.10
2022-11-01T07:55:28.671Z,17.10
2022-11-01T07:57:55.439Z,17.20
2022-11-01T08:00:22.472Z,17.20
2022-11-01T08:02:49.353Z,17.30
2022-11-01T08:05:16.166Z,17.40
2022-11-01T08:07:42.820Z,17.40
2022-11-01T08:10:12.091Z,17.40
2022-11-01T08:12:38.889Z,17.40
2022-11-01T08:15:05.970Z,17.50
2022-11-01T08:17:34.583Z,17.50
2022-11-01T08:20:01.538Z,17.60
2022-11-01T08:22:28.467Z,17.50
2022-11-01T08:24:55.347Z,17.60
2022-11-01T08:27:22.119Z,17.60
2022-11-01T08:29:48.827Z,17.60
2022-11-01T08:32:19.623Z,17.60
2022-11-01T08:34:46.317Z,17.70
2022-11-01T08:37:13.336Z,17.70
2022-11-01T08:39:40.065Z,17.70
2022-11-01T08:42:06.878Z,17.70
2022-11-01T08:44:34.565Z,17.80
2022-11-01T08:47:01.977Z,17.80
2022-11-01T08:49:28.944Z,17.80
2022-11-01T08:51:56.009Z,17.80
2022-11-01T08:54:23.056Z,17.80
2022-11-01T08:56:49.776Z,17.80
2022-11-01T08:59:16.423Z,17.80
2022-11-01T09:01:43.464Z,17.80
2022-11-01T09:04:10.142Z,17.80
2022-11-01T09:06:36.793Z,17.80
2022-11-01T09:09:04.632Z,17.80
2022-11-01T09:11:31.319Z,17.90
2022-11-01T09:13:58.040Z,18.00
2022-11-01T09:16:25.321Z,18.00
2022-11-01T09:18:52.429Z,18.10
2022-11-01T09:21:19.275Z,18.10
2022-11-01T09:23:49.061Z,18.20
2022-11-01T09:26:15.773Z,18.30
2022-11-01T09:28:42.514Z,18.30
2022-11-01T09:31:20.755Z,18.40
2022-11-01T09:33:48.319Z,18.40
2022-11-01T09:36:15.259Z,18.50
2022-11-01T09:38:41.902Z,18.60
2022-11-01T09:41:16.299Z,18.60
2022-11-01T09:43:45.086Z,18.70
2022-11-01T09:46:16.575Z,18.80
2022-11-01T09:48:45.284Z,18.90
2022-11-01T09:51:19.464Z,18.90
2022-11-01T09:53:48.758Z,19.00
2022-11-01T09:56:19.866Z,19.10
2022-11-01T09:58:51.483Z,19.20
2022-11-01T10:01:53.825Z,19.30
2022-11-01T10:04:28.680Z,19.40
2022-11-01T10:07:08.004Z,19.50
2022-11-01T10:10:01.303Z,19.60
2022-11-01T10:12:58.728Z,19.70
2022-11-01T10:15:50.189Z,19.80
2022-11-01T10:18:22.593Z,19.90
2022-11-01T10:20:49.530Z,19.90
2022-11-01T10:23:18.230Z,19.90
2022-11-01T10:25:51.299Z,20.00
2022-11-01T10:28:50.517Z,19.90
2022-11-01T10:31:22.161Z,19.90
2022-11-01T10:34:16.060Z,19.90
2022-11-01T10:36:46.677Z,20.00
2022-11-01T10:40:01.299Z,20.10
2022-11-01T10:42:30.033Z,20.10
2022-11-01T10:45:01.943Z,20.20
2022-11-01T10:47:28.997Z,20.30
2022-11-01T10:50:10.363Z,20.30
2022-11-01T10:52:54.431Z,20.30
2022-11-01T10:55:24.051Z,20.30
2022-11-01T10:58:05.055Z,20.30
2022-11-01T11:00:34.755Z,20.30
2022-11-01T11:03:33.161Z,20.40
2022-11-01T11:06:05.837Z,20.50
2022-11-01T11:08:33.543Z,20.60
2022-11-01T11:11:07.821Z,20.50
2022-11-01T11:13:35.334Z,20.50
2022-11-01T11:16:05.460Z,20.30
2022-11-01T11:18:38.595Z,20.20
2022-11-01T11:21:11.690Z,20.10
2022-11-01T11:23:46.454Z,20.10
2022-11-01T11:26:17.452Z,20.10
2022-11-01T11:28:51.816Z,20.10
2022-11-01T11:31:24.207Z,20.10
2022-11-01T11:34:11.403Z,20.10
2022-11-01T11:36:42.313Z,20.20
2022-11-01T11:39:35.883Z,20.20
2022-11-01T11:42:20.234Z,20.10
2022-11-01T11:44:52.128Z,20.10
2022-11-01T11:47:28.281Z,20.10
2022-11-01T11:49:58.342Z,20.00
2022-11-01T11:52:38.376Z,20.00
2022-11-01T11:55:07.777Z,19.90
2022-11-01T11:57:34.628Z,19.90
2022-11-01T12:00:05.306Z,19.90
2022-11-01T12:02:41.477Z,19.80
2022-11-01T12:05:20.082Z,19.70
2022-11-01T12:07:53.267Z,19.70
2022-11-01T12:10:38.582Z,19.70
2022-11-01T12:13:33.044Z,19.60
2022-11-01T12:16:16.348Z,19.60
2022-11-01T12:18:48.750Z,19.50
2022-11-01T12:21:24.736Z,19.40
2022-11-01T12:24:02.767Z,19.40
2022-11-01T12:26:32.642Z,19.40
2022-11-01T12:29:15.802Z,19.30
2022-11-01T12:31:44.349Z,19.30
2022-11-01T12:34:28.100Z,19.20
2022-11-01T12:37:00.097Z,19.20
2022-11-01T12:39:49.838Z,19.10
2022-11-01T12:42:28.661Z,19.10
2022-11-01T12:45:10.017Z,18.90
2022-11-01T12:47:48.244Z,18.90
2022-11-01T12:50:40.662Z,18.80
2022-11-01T12:53:50.687Z,18.70
2022-11-01T12:56:18.058Z,18.70
2022-11-01T12:58:45.208Z,18.60
2022-11-01T13:01:26.862Z,18.60
2022-11-01T13:04:11.346Z,18.50
2022-11-01T13:07:06.116Z,18.50
2022-11-01T13:10:07.152Z,18.40
2022-11-01T13:12:56.826Z,18.40
2022-11-01T13:15:58.793Z,18.40
2022-11-01T13:18:44.573Z,18.30
2022-11-01T13:21:22.285Z,18.10
2022-11-01T13:23:56.721Z,18.10
2022-11-01T13:26:49.978Z,18.00
2022-11-01T13:29:38.212Z,17.80
2022-11-01T13:32:40.250Z,17.40
2022-11-01T13:35:26.033Z,17.30
2022-11-01T13:38:26.635Z,17.30
2022-11-01T13:41:05.629Z,17.40
2022-11-01T13:43:47.528Z,17.30
2022-11-01T13:46:59.272Z,17.10
2022-11-01T13:49:36.352Z,17.00
2022-11-01T13:52:26.767Z,17.10
2022-11-01T13:55:18.455Z,17.00
2022-11-01T13:57:45.453Z,17.00
2022-11-01T14:00:37.099Z,17.10
2022-11-01T14:03:21.579Z,17.30
2022-11-01T14:06:11.505Z,17.40
2022-11-01T14:08:39.680Z,17.20
2022-11-01T14:11:07.539Z,17.20
2022-11-01T14:13:41.161Z,17.40
2022-11-01T14:16:19.360Z,17.40
2022-11-01T14:19:14.740Z,17.30
2022-11-01T14:21:46.538Z,17.40
2022-11-01T14:24:33.827Z,17.20
2022-11-01T14:27:19.968Z,17.20
2022-11-01T14:29:51.354Z,17.30
2022-11-01T14:32:20.126Z,17.50
2022-11-01T14:35:04.809Z,17.60
2022-11-01T14:37:38.277Z,17.70
2022-11-01T14:40:32.040Z,17.70
2022-11-01T14:43:11.085Z,17.70
2022-11-01T14:45:42.200Z,17.80
2022-11-01T14:48:26.455Z,17.80
2022-11-01T14:51:05.269Z,17.70
2022-11-01T14:53:34.092Z,17.70
2022-11-01T14:56:18.995Z,17.80
2022-11-01T14:58:46.174Z,17.70
2022-11-01T15:01:15.148Z,17.70
2022-11-01T15:03:46.319Z,17.70
2022-11-01T15:06:30.245Z,17.70
2022-11-01T15:08:59.749Z,17.70
2022-11-01T15:11:31.546Z,17.70
2022-11-01T15:14:00.957Z,17.70
2022-11-01T15:16:28.815Z,17.80
2022-11-01T15:19:23.037Z,17.80
2022-11-01T15:21:49.764Z,17.90
2022-11-01T15:24:22.267Z,17.90
2022-11-01T15:26:49.756Z,18.00
2022-11-01T15:29:18.879Z,18.10
2022-11-01T15:31:58.034Z,18.00
2022-11-01T15:34:36.658Z,18.10
2022-11-01T15:37:24.123Z,18.00
2022-11-01T15:39:51.309Z,18.00
2022-11-01T15:42:31.676Z,17.90
2022-11-01T15:45:17.401Z,17.90
2022-11-01T15:47:46.212Z,17.80
2022-11-01T15:50:13.705Z,17.70
2022-11-01T15:52:40.557Z,17.70
2022-11-01T15:55:20.939Z,17.70
2022-11-01T15:57:56.638Z,17.60
2022-11-01T16:00:29.380Z,17.60
2022-11-01T16:03:06.840Z,17.60
2022-11-01T16:05:39.084Z,17.50
2022-11-01T16:08:08.466Z,17.40
2022-11-01T16:10:35.958Z,17.40
2022-11-01T16:13:04.827Z,17.50
2022-11-01T16:15:34.114Z,17.40
2022-11-01T16:18:14.223Z,17.40
2022-11-01T16:20:41.295Z,17.40
2022-11-01T16:23:12.405Z,17.40
2022-11-01T16:25:39.873Z,17.40
2022-11-01T16:28:28.295Z,17.40
2022-11-01T16:30:56.950Z,17.40
2022-11-01T16:33:33.594Z,17.40
2022-11-01T16:36:19.627Z,17.30
2022-11-01T16:38:53.691Z,17.30
2022-11-01T16:41:26.412Z,17.30
2022-11-01T16:43:58.409Z,17.30
2022-11-01T16:46:27.391Z,17.20
2022-11-01T16:48:56.356Z,17.20
2022-11-01T16:51:28.441Z,17.10
2022-11-01T16:53:57.208Z,17.10
2022-11-01T16:56:41.727Z,17.10
2022-11-01T16:59:22.184Z,17.10
2022-11-01T17:01:49.897Z,17.10
2022-11-01T17:04:18.477Z,17.00
2022-11-01T17:06:45.265Z,16.90
2022-11-01T17:09:13.725Z,16.90
2022-11-01T17:11:42.314Z,16.90
2022-11-01T17:14:10.745Z,16.90
2022-11-01T17:16:38.382Z,16.90
2022-11-01T17:19:05.829Z,16.80
2022-11-01T17:21:38.230Z,17.00
2022-11-01T17:24:05.157Z,16.90
2022-11-01T17:26:33.524Z,16.90
2022-11-01T17:29:00.412Z,17.00
2022-11-01T17:31:27.208Z,17.00
2022-11-01T17:33:53.855Z,17.00
2022-11-01T17:36:20.599Z,17.10
2022-11-01T17:38:50.170Z,17.10
2022-11-01T17:41:19.581Z,17.10
2022-11-01T17:43:46.361Z,17.10
2022-11-01T17:46:20.186Z,17.10
2022-11-01T17:48:46.987Z,17.20
2022-11-01T17:51:13.709Z,17.20
2022-11-01T17:53:42.213Z,17.20
2022-11-01T17:56:09.042Z,17.20
2022-11-01T17:58:36.212Z,17.20
2022-11-01T18:01:04.121Z,17.20
2022-11-01T18:03:31.818Z,17.10
2022-11-01T18:05:59.567Z,17.00
2022-11-01T18:08:29.399Z,17.00
2022-11-01T18:11:15.360Z,17.00
2022-11-01T18:13:52.123Z,16.80
2022-11-01T18:16:24.625Z,16.60
2022-11-01T18:19:31.255Z,16.50
2022-11-01T18:22:33.593Z,16.20
2022-11-01T18:25:12.474Z,16.20
2022-11-01T18:27:39.200Z,16.20
2022-11-01T18:30:14.467Z,16.10
2022-11-01T18:32:46.554Z,16.20
2022-11-01T18:35:26.048Z,16.20
2022-11-01T18:38:25.901Z,16.10
2022-11-01T18:41:01.103Z,16.10
2022-11-01T18:43:32.506Z,16.20
2022-11-01T18:48:48.019Z,16.20
2022-11-01T18:51:28.242Z,16.10
2022-11-01T18:54:09.109Z,16.30
2022-11-01T18:56:40.087Z,16.40
2022-11-01T18:59:15.458Z,16.50
2022-11-01T19:01:42.744Z,16.60
2022-11-01T19:04:24.961Z,16.60
2022-11-01T19:07:03.769Z,16.60
2022-11-01T19:09:36.215Z,16.60
2022-11-01T19:12:12.754Z,16.60
2022-11-01T19:14:40.514Z,16.60
2022-11-01T19:17:24.748Z,16.60
2022-11-01T19:19:56.617Z,16.70
2022-11-01T19:22:37.593Z,16.70
2022-11-01T19:25:25.570Z,16.70
2022-11-01T19:27:57.471Z,16.70
2022-11-01T19:30:28.506Z,16.70
2022-11-01T19:33:00.241Z,16.70
2022-11-01T19:35:27.183Z,16.60
2022-11-01T19:37:55.288Z,16.60
2022-11-01T19:40:28.301Z,16.60
2022-11-01T19:42:57.337Z,16.60
2022-11-01T19:45:31.362Z,16.50
2022-11-01T19:47:58.495Z,16.50
2022-11-01T19:50:40.394Z,16.50
2022-11-01T19:53:15.866Z,16.50
2022-11-01T19:56:05.360Z,16.40
2022-11-01T19:58:41.978Z,16.40
2022-11-01T20:01:09.138Z,16.40
2022-11-01T20:03:46.059Z,16.40
2022-11-01T20:06:35.303Z,16.40
2022-11-01T20:09:04.419Z,16.30
2022-11-01T20:11:34.362Z,16.30
2022-11-01T20:14:01.578Z,16.30
2022-11-01T20:16:28.558Z,16.30
2022-11-01T20:18:55.364Z,16.20
2022-11-01T20:21:22.068Z,16.20
2022-11-01T20:23:49.007Z,16.20
2022-11-01T20:26:15.722Z,16.10
2022-11-01T20:28:42.791Z,16.10
2022-11-01T20:31:09.959Z,16.10
2022-11-01T20:33:36.600Z,16.10
2022-11-01T20:36:08.228Z,16.10
2022-11-01T20:38:37.645Z,16.00
2022-11-01T20:41:04.342Z,15.90
2022-11-01T20:43:31.014Z,15.90
2022-11-01T20:45:58.362Z,15.90
2022-11-01T20:48:25.655Z,15.80
2022-11-01T20:50:53.479Z,15.80
2022-11-01T20:53:21.008Z,15.70
2022-11-01T20:55:48.778Z,15.50
2022-11-01T20:58:15.476Z,15.40
2022-11-01T21:00:42.868Z,15.30
2022-11-01T21:03:18.430Z,15.20
2022-11-01T21:05:46.903Z,15.00
2022-11-01T21:08:27.957Z,14.90
2022-11-01T21:11:01.802Z,14.90
2022-11-01T21:13:35.423Z,14.90
2022-11-01T21:16:03.871Z,14.80
2022-11-01T21:18:33.143Z,14.70
2022-11-01T21:21:32.210Z,14.70
2022-11-01T21:23:59.654Z,14.70
2022-11-01T21:26:33.754Z,14.90
2022-11-01T21:29:07.392Z,14.80
2022-11-01T21:31:37.983Z,14.90
2022-11-01T21:34:10.507Z,14.90
2022-11-01T21:36:41.615Z,15.00
2022-11-01T21:39:14.716Z,14.90
2022-11-01T21:41:51.838Z,14.90
2022-11-01T21:44:18.869Z,14.90
2022-11-01T21:46:48.437Z,14.80
2022-11-01T21:49:28.350Z,14.90
2022-11-01T21:51:57.118Z,14.80
2022-11-01T21:54:23.970Z,14.80
2022-11-01T21:56:50.767Z,14.70
2022-11-01T21:59:17.499Z,14.70
2022-11-01T22:01:46.424Z,14.60
2022-11-01T22:04:15.233Z,14.50
2022-11-01T22:06:42.709Z,14.30
2022-11-01T22:09:10.479Z,14.40
2022-11-01T22:11:37.973Z,14.50
2022-11-01T22:14:05.570Z,14.50
2022-11-01T22:16:32.973Z,14.60
2022-11-01T22:19:00.127Z,14.70
2022-11-01T22:21:26.888Z,14.60
2022-11-01T22:23:53.544Z,14.30
2022-11-01T22:26:20.362Z,14.30
2022-11-01T22:28:47.269Z,14.20
2022-11-01T22:31:14.042Z,14.20
2022-11-01T22:33:40.801Z,14.10
2022-11-01T22:36:11.289Z,14.20
2022-11-01T22:38:40.233Z,14.20
2022-11-01T22:41:17.262Z,14.00
2022-11-01T22:43:46.098Z,13.90
2022-11-01T22:46:36.641Z,13.80
2022-11-01T22:49:12.248Z,13.80
2022-11-01T22:51:40.657Z,13.70
2022-11-01T22:54:38.830Z,13.80
2022-11-01T22:57:08.480Z,13.80
2022-11-01T22:59:42.539Z,13.80
2022-11-01T23:02:29.541Z,13.90
2022-11-01T23:05:08.599Z,14.00
2022-11-01T23:07:36.739Z,14.30
2022-11-01T23:10:07.152Z,14.40
2022-11-01T23:12:55.254Z,14.60
2022-11-01T23:15:30.656Z,14.60
2022-11-01T23:18:22.486Z,14.70
2022-11-01T23:20:59.789Z,14.60
2022-11-01T23:23:27.119Z,14.60
2022-11-01T23:25:55.207Z,14.70
2022-11-01T23:28:23.278Z,14.80
2022-11-01T23:30:51.938Z,14.80
2022-11-01T23:33:20.773Z,14.70
2022-11-01T23:35:53.374Z,14.70
2022-11-01T23:38:22.930Z,14.80
2022-11-01T23:40:52.987Z,14.80
2022-11-01T23:43:27.682Z,14.90
2022-11-01T23:45:54.768Z,14.80
2022-11-01T23:48:22.554Z,14.90
2022-11-01T23:50:51.669Z,15.00
2022-11-01T23:53:22.308Z,15.00
2022-11-01T23:55:53.655Z,15.00
